sensor_id;sensor_type;location;lat;lon;timestamp;P1;durP1;ratioP1;P2;durP2;ratioP2
12631;SDS011;6381;45.748;12.106;2022-12-20T00:01:52;32.53;;;29.23;;
12631;SDS011;6381;45.748;12.106;2022-12-20T00:04:59;30.37;;;27.37;;
12631;SDS011;6381;45.748;12.106;2022-12-20T00:07:29;31.90;;;28.70;;
12631;SDS011;6381;45.748;12.106;2022-12-20T00:10:05;37.13;;;33.30;;
12631;SDS011;6381;45.748;12.106;2022-12-20T00:12:35;40.13;;;35.20;;
12631;SDS011;6381;45.748;12.106;2022-12-20T00:15:06;40.30;;;35.90;;
12631;SDS011;6381;45.748;12.106;2022-12-20T00:17:47;35.90;;;32.10;;
12631;SDS011;6381;45.748;12.106;2022-12-20T00:20:19;32.77;;;29.47;;
12631;SDS011;6381;45.748;12.106;2022-12-20T00:22:49;30.17;;;27.17;;
12631;SDS011;6381;45.748;12.106;2022-12-20T00:25:18;30.27;;;27.17;;
12631;SDS011;6381;45.748;12.106;2022-12-20T00:27:48;30.93;;;27.43;;
12631;SDS011;6381;45.748;12.106;2022-12-20T00:30:18;30.03;;;27.03;;
12631;SDS011;6381;45.748;12.106;2022-12-20T00:32:47;28.87;;;25.97;;
12631;SDS011;6381;45.748;12.106;2022-12-20T00:35:17;28.13;;;25.23;;
12631;SDS011;6381;45.748;12.106;2022-12-20T00:37:48;27.50;;;24.80;;
12631;SDS011;6381;45.748;12.106;2022-12-20T00:40:18;30.03;;;27.13;;
12631;SDS011;6381;45.748;12.106;2022-12-20T00:42:47;27.73;;;24.83;;
12631;SDS011;6381;45.748;12.106;2022-12-20T00:45:16;29.70;;;26.70;;
12631;SDS011;6381;45.748;12.106;2022-12-20T00:47:46;27.83;;;24.90;;
12631;SDS011;6381;45.748;12.106;2022-12-20T00:50:15;27.93;;;25.27;;
12631;SDS011;6381;45.748;12.106;2022-12-20T00:52:49;28.13;;;25.27;;
12631;SDS011;6381;45.748;12.106;2022-12-20T00:55:18;29.10;;;26.00;;
12631;SDS011;6381;45.748;12.106;2022-12-20T00:57:48;28.83;;;25.87;;
12631;SDS011;6381;45.748;12.106;2022-12-20T01:00:18;27.23;;;24.53;;
12631;SDS011;6381;45.748;12.106;2022-12-20T01:02:47;26.43;;;23.70;;
12631;SDS011;6381;45.748;12.106;2022-12-20T01:05:17;26.70;;;23.93;;
12631;SDS011;6381;45.748;12.106;2022-12-20T01:07:46;25.87;;;23.27;;
12631;SDS011;6381;45.748;12.106;2022-12-20T01:10:17;24.70;;;22.10;;
12631;SDS011;6381;45.748;12.106;2022-12-20T01:12:47;25.07;;;22.57;;
12631;SDS011;6381;45.748;12.106;2022-12-20T01:15:16;25.50;;;22.90;;
12631;SDS011;6381;45.748;12.106;2022-12-20T01:17:46;26.13;;;23.43;;
12631;SDS011;6381;45.748;12.106;2022-12-20T01:20:18;25.43;;;22.83;;
12631;SDS011;6381;45.748;12.106;2022-12-20T01:22:47;25.30;;;22.70;;
12631;SDS011;6381;45.748;12.106;2022-12-20T01:25:20;26.47;;;23.87;;
12631;SDS011;6381;45.748;12.106;2022-12-20T01:27:52;24.13;;;21.73;;
12631;SDS011;6381;45.748;12.106;2022-12-20T01:30:21;25.07;;;22.63;;
12631;SDS011;6381;45.748;12.106;2022-12-20T01:32:51;25.30;;;22.83;;
12631;SDS011;6381;45.748;12.106;2022-12-20T01:35:23;24.10;;;21.57;;
12631;SDS011;6381;45.748;12.106;2022-12-20T01:37:52;24.17;;;21.77;;
12631;SDS011;6381;45.748;12.106;2022-12-20T01:40:23;23.67;;;21.40;;
12631;SDS011;6381;45.748;12.106;2022-12-20T01:42:55;24.00;;;21.70;;
12631;SDS011;6381;45.748;12.106;2022-12-20T01:45:28;23.10;;;20.80;;
12631;SDS011;6381;45.748;12.106;2022-12-20T01:47:58;23.87;;;21.43;;
12631;SDS011;6381;45.748;12.106;2022-12-20T01:50:28;23.60;;;21.20;;
12631;SDS011;6381;45.748;12.106;2022-12-20T01:52:57;23.93;;;21.50;;
12631;SDS011;6381;45.748;12.106;2022-12-20T01:55:31;23.83;;;21.33;;
12631;SDS011;6381;45.748;12.106;2022-12-20T01:58:03;23.27;;;20.97;;
12631;SDS011;6381;45.748;12.106;2022-12-20T02:00:33;22.73;;;20.40;;
12631;SDS011;6381;45.748;12.106;2022-12-20T02:03:04;23.63;;;21.30;;
12631;SDS011;6381;45.748;12.106;2022-12-20T02:05:35;24.50;;;22.10;;
12631;SDS011;6381;45.748;12.106;2022-12-20T02:08:05;22.63;;;20.43;;
12631;SDS011;6381;45.748;12.106;2022-12-20T02:10:39;23.03;;;20.73;;
12631;SDS011;6381;45.748;12.106;2022-12-20T02:13:15;23.70;;;21.20;;
12631;SDS011;6381;45.748;12.106;2022-12-20T02:15:48;22.97;;;20.70;;
12631;SDS011;6381;45.748;12.106;2022-12-20T02:18:22;23.37;;;21.00;;
12631;SDS011;6381;45.748;12.106;2022-12-20T02:26:35;22.70;;;20.50;;
12631;SDS011;6381;45.748;12.106;2022-12-20T02:29:14;22.83;;;20.63;;
12631;SDS011;6381;45.748;12.106;2022-12-20T02:31:49;22.57;;;20.47;;
12631;SDS011;6381;45.748;12.106;2022-12-20T02:34:22;22.47;;;20.27;;
12631;SDS011;6381;45.748;12.106;2022-12-20T02:36:53;22.10;;;20.00;;
12631;SDS011;6381;45.748;12.106;2022-12-20T02:39:22;23.23;;;20.83;;
12631;SDS011;6381;45.748;12.106;2022-12-20T02:41:53;22.73;;;20.40;;
12631;SDS011;6381;45.748;12.106;2022-12-20T02:44:24;22.80;;;20.57;;
12631;SDS011;6381;45.748;12.106;2022-12-20T02:47:14;21.50;;;19.40;;
12631;SDS011;6381;45.748;12.106;2022-12-20T02:49:46;21.80;;;19.50;;
12631;SDS011;6381;45.748;12.106;2022-12-20T02:52:17;22.50;;;20.23;;
12631;SDS011;6381;45.748;12.106;2022-12-20T02:54:48;22.17;;;19.93;;
12631;SDS011;6381;45.748;12.106;2022-12-20T02:57:19;21.47;;;19.27;;
12631;SDS011;6381;45.748;12.106;2022-12-20T02:59:54;20.77;;;18.67;;
12631;SDS011;6381;45.748;12.106;2022-12-20T03:02:28;21.37;;;19.27;;
12631;SDS011;6381;45.748;12.106;2022-12-20T03:05:22;21.50;;;19.37;;
12631;SDS011;6381;45.748;12.106;2022-12-20T03:07:53;21.83;;;19.63;;
12631;SDS011;6381;45.748;12.106;2022-12-20T03:10:23;21.70;;;19.37;;
12631;SDS011;6381;45.748;12.106;2022-12-20T03:12:53;21.30;;;19.20;;
12631;SDS011;6381;45.748;12.106;2022-12-20T03:15:23;22.33;;;20.03;;
12631;SDS011;6381;45.748;12.106;2022-12-20T03:17:57;21.60;;;19.43;;
12631;SDS011;6381;45.748;12.106;2022-12-20T03:20:26;21.43;;;19.33;;
12631;SDS011;6381;45.748;12.106;2022-12-20T03:22:56;21.87;;;19.57;;
12631;SDS011;6381;45.748;12.106;2022-12-20T03:25:25;21.80;;;19.60;;
12631;SDS011;6381;45.748;12.106;2022-12-20T03:27:57;22.00;;;19.70;;
12631;SDS011;6381;45.748;12.106;2022-12-20T03:30:27;21.03;;;18.93;;
12631;SDS011;6381;45.748;12.106;2022-12-20T03:32:59;20.77;;;18.87;;
12631;SDS011;6381;45.748;12.106;2022-12-20T03:35:28;20.70;;;18.90;;
12631;SDS011;6381;45.748;12.106;2022-12-20T03:38:02;20.73;;;18.63;;
12631;SDS011;6381;45.748;12.106;2022-12-20T03:40:32;20.90;;;18.90;;
12631;SDS011;6381;45.748;12.106;2022-12-20T03:43:01;20.17;;;18.07;;
12631;SDS011;6381;45.748;12.106;2022-12-20T03:45:31;20.93;;;18.73;;
12631;SDS011;6381;45.748;12.106;2022-12-20T03:48:02;20.30;;;18.17;;
12631;SDS011;6381;45.748;12.106;2022-12-20T03:50:31;21.17;;;19.07;;
12631;SDS011;6381;45.748;12.106;2022-12-20T03:53:03;20.27;;;18.17;;
12631;SDS011;6381;45.748;12.106;2022-12-20T03:55:33;21.63;;;19.33;;
12631;SDS011;6381;45.748;12.106;2022-12-20T03:58:02;20.03;;;18.07;;
12631;SDS011;6381;45.748;12.106;2022-12-20T04:00:36;20.73;;;18.63;;
12631;SDS011;6381;45.748;12.106;2022-12-20T04:03:32;20.37;;;18.07;;
12631;SDS011;6381;45.748;12.106;2022-12-20T04:06:02;20.27;;;18.27;;
12631;SDS011;6381;45.748;12.106;2022-12-20T04:08:32;21.20;;;19.10;;
12631;SDS011;6381;45.748;12.106;2022-12-20T04:11:02;25.27;;;22.70;;
12631;SDS011;6381;45.748;12.106;2022-12-20T04:13:52;23.17;;;20.93;;
12631;SDS011;6381;45.748;12.106;2022-12-20T04:16:22;24.13;;;21.57;;
12631;SDS011;6381;45.748;12.106;2022-12-20T04:18:55;22.50;;;20.40;;
12631;SDS011;6381;45.748;12.106;2022-12-20T04:21:28;21.73;;;19.60;;
12631;SDS011;6381;45.748;12.106;2022-12-20T04:24:00;22.83;;;20.17;;
12631;SDS011;6381;45.748;12.106;2022-12-20T04:26:42;21.43;;;19.33;;
12631;SDS011;6381;45.748;12.106;2022-12-20T04:29:12;23.07;;;20.67;;
12631;SDS011;6381;45.748;12.106;2022-12-20T04:31:43;21.80;;;19.73;;
12631;SDS011;6381;45.748;12.106;2022-12-20T04:34:14;22.67;;;20.27;;
12631;SDS011;6381;45.748;12.106;2022-12-20T04:36:44;23.07;;;20.77;;
12631;SDS011;6381;45.748;12.106;2022-12-20T04:39:22;22.57;;;20.57;;
12631;SDS011;6381;45.748;12.106;2022-12-20T04:42:14;22.07;;;19.97;;
12631;SDS011;6381;45.748;12.106;2022-12-20T04:44:44;23.03;;;20.63;;
12631;SDS011;6381;45.748;12.106;2022-12-20T04:47:19;22.97;;;20.57;;
12631;SDS011;6381;45.748;12.106;2022-12-20T04:49:51;22.03;;;19.73;;
12631;SDS011;6381;45.748;12.106;2022-12-20T04:52:21;22.17;;;19.73;;
12631;SDS011;6381;45.748;12.106;2022-12-20T04:55:15;21.70;;;19.47;;
12631;SDS011;6381;45.748;12.106;2022-12-20T04:57:44;22.73;;;19.83;;
12631;SDS011;6381;45.748;12.106;2022-12-20T05:00:14;24.30;;;21.63;;
12631;SDS011;6381;45.748;12.106;2022-12-20T05:02:50;24.30;;;21.90;;
12631;SDS011;6381;45.748;12.106;2022-12-20T05:05:24;22.43;;;20.17;;
12631;SDS011;6381;45.748;12.106;2022-12-20T05:07:55;23.33;;;20.87;;
12631;SDS011;6381;45.748;12.106;2022-12-20T05:10:26;24.10;;;21.80;;
12631;SDS011;6381;45.748;12.106;2022-12-20T05:12:59;25.33;;;22.73;;
12631;SDS011;6381;45.748;12.106;2022-12-20T05:15:41;24.80;;;22.37;;
12631;SDS011;6381;45.748;12.106;2022-12-20T05:18:11;24.20;;;21.73;;
12631;SDS011;6381;45.748;12.106;2022-12-20T05:21:01;23.73;;;21.27;;
12631;SDS011;6381;45.748;12.106;2022-12-20T05:23:50;24.00;;;21.70;;
12631;SDS011;6381;45.748;12.106;2022-12-20T05:26:57;24.70;;;22.23;;
12631;SDS011;6381;45.748;12.106;2022-12-20T05:29:28;25.17;;;22.03;;
12631;SDS011;6381;45.748;12.106;2022-12-20T05:31:58;23.30;;;21.00;;
12631;SDS011;6381;45.748;12.106;2022-12-20T05:34:27;23.93;;;21.53;;
12631;SDS011;6381;45.748;12.106;2022-12-20T05:36:58;25.37;;;22.87;;
12631;SDS011;6381;45.748;12.106;2022-12-20T05:39:30;24.23;;;21.80;;
12631;SDS011;6381;45.748;12.106;2022-12-20T05:42:05;26.10;;;22.20;;
12631;SDS011;6381;45.748;12.106;2022-12-20T05:44:35;24.10;;;21.40;;
12631;SDS011;6381;45.748;12.106;2022-12-20T05:47:04;24.80;;;22.10;;
12631;SDS011;6381;45.748;12.106;2022-12-20T05:49:36;23.40;;;21.00;;
12631;SDS011;6381;45.748;12.106;2022-12-20T05:52:10;23.73;;;21.43;;
12631;SDS011;6381;45.748;12.106;2022-12-20T05:54:40;24.20;;;21.70;;
12631;SDS011;6381;45.748;12.106;2022-12-20T05:57:13;26.33;;;23.20;;
12631;SDS011;6381;45.748;12.106;2022-12-20T05:59:45;25.50;;;22.90;;
12631;SDS011;6381;45.748;12.106;2022-12-20T06:02:16;24.93;;;22.53;;
12631;SDS011;6381;45.748;12.106;2022-12-20T06:04:50;24.07;;;21.57;;
12631;SDS011;6381;45.748;12.106;2022-12-20T06:07:23;22.53;;;20.33;;
12631;SDS011;6381;45.748;12.106;2022-12-20T06:09:58;23.23;;;20.83;;
12631;SDS011;6381;45.748;12.106;2022-12-20T06:12:46;24.47;;;21.23;;
12631;SDS011;6381;45.748;12.106;2022-12-20T06:15:16;24.53;;;21.80;;
12631;SDS011;6381;45.748;12.106;2022-12-20T06:17:47;25.17;;;21.73;;
12631;SDS011;6381;45.748;12.106;2022-12-20T06:20:16;23.77;;;21.37;;
12631;SDS011;6381;45.748;12.106;2022-12-20T06:22:49;30.23;;;20.73;;
12631;SDS011;6381;45.748;12.106;2022-12-20T06:25:20;23.50;;;21.17;;
12631;SDS011;6381;45.748;12.106;2022-12-20T06:27:50;23.70;;;21.23;;
12631;SDS011;6381;45.748;12.106;2022-12-20T06:30:20;25.97;;;21.87;;
12631;SDS011;6381;45.748;12.106;2022-12-20T06:33:04;25.07;;;22.37;;
12631;SDS011;6381;45.748;12.106;2022-12-20T06:35:34;24.43;;;21.90;;
12631;SDS011;6381;45.748;12.106;2022-12-20T06:38:06;26.30;;;23.70;;
12631;SDS011;6381;45.748;12.106;2022-12-20T06:40:36;26.30;;;23.70;;
12631;SDS011;6381;45.748;12.106;2022-12-20T06:43:06;26.03;;;23.40;;
12631;SDS011;6381;45.748;12.106;2022-12-20T06:45:35;27.67;;;24.67;;
12631;SDS011;6381;45.748;12.106;2022-12-20T06:48:09;25.63;;;23.13;;
12631;SDS011;6381;45.748;12.106;2022-12-20T06:50:41;25.70;;;23.00;;
12631;SDS011;6381;45.748;12.106;2022-12-20T06:53:19;24.93;;;22.37;;
12631;SDS011;6381;45.748;12.106;2022-12-20T06:55:50;26.20;;;23.63;;
12631;SDS011;6381;45.748;12.106;2022-12-20T06:58:20;26.67;;;23.97;;
12631;SDS011;6381;45.748;12.106;2022-12-20T07:00:50;27.03;;;24.23;;
12631;SDS011;6381;45.748;12.106;2022-12-20T07:03:19;26.33;;;23.60;;
12631;SDS011;6381;45.748;12.106;2022-12-20T07:05:50;27.90;;;24.23;;
12631;SDS011;6381;45.748;12.106;2022-12-20T07:08:21;28.53;;;25.73;;
12631;SDS011;6381;45.748;12.106;2022-12-20T07:10:51;32.07;;;28.63;;
12631;SDS011;6381;45.748;12.106;2022-12-20T07:13:21;31.10;;;28.00;;
12631;SDS011;6381;45.748;12.106;2022-12-20T07:15:56;34.17;;;27.73;;
12631;SDS011;6381;45.748;12.106;2022-12-20T07:18:25;30.47;;;27.37;;
12631;SDS011;6381;45.748;12.106;2022-12-20T07:20:58;29.70;;;26.50;;
12631;SDS011;6381;45.748;12.106;2022-12-20T07:23:29;29.63;;;26.70;;
12631;SDS011;6381;45.748;12.106;2022-12-20T07:25:59;28.30;;;25.33;;
12631;SDS011;6381;45.748;12.106;2022-12-20T07:28:30;30.47;;;27.37;;
12631;SDS011;6381;45.748;12.106;2022-12-20T07:30:59;29.43;;;26.43;;
12631;SDS011;6381;45.748;12.106;2022-12-20T07:33:29;29.67;;;26.47;;
12631;SDS011;6381;45.748;12.106;2022-12-20T07:35:59;27.50;;;24.60;;
12631;SDS011;6381;45.748;12.106;2022-12-20T07:38:30;30.70;;;26.93;;
12631;SDS011;6381;45.748;12.106;2022-12-20T07:41:00;29.20;;;26.20;;
12631;SDS011;6381;45.748;12.106;2022-12-20T07:43:29;30.37;;;27.00;;
12631;SDS011;6381;45.748;12.106;2022-12-20T07:45:59;31.50;;;28.30;;
12631;SDS011;6381;45.748;12.106;2022-12-20T07:48:29;31.80;;;28.37;;
12631;SDS011;6381;45.748;12.106;2022-12-20T07:50:59;29.00;;;25.87;;
12631;SDS011;6381;45.748;12.106;2022-12-20T07:53:34;30.23;;;27.17;;
12631;SDS011;6381;45.748;12.106;2022-12-20T07:56:05;38.03;;;31.27;;
12631;SDS011;6381;45.748;12.106;2022-12-20T07:58:39;31.33;;;28.07;;
12631;SDS011;6381;45.748;12.106;2022-12-20T08:01:09;30.17;;;27.07;;
12631;SDS011;6381;45.748;12.106;2022-12-20T08:03:48;31.23;;;27.83;;
12631;SDS011;6381;45.748;12.106;2022-12-20T08:06:31;30.53;;;27.53;;
12631;SDS011;6381;45.748;12.106;2022-12-20T08:09:19;33.03;;;28.43;;
12631;SDS011;6381;45.748;12.106;2022-12-20T08:11:49;33.67;;;29.57;;
12631;SDS011;6381;45.748;12.106;2022-12-20T08:14:19;34.80;;;30.60;;
12631;SDS011;6381;45.748;12.106;2022-12-20T08:16:51;35.10;;;31.43;;
12631;SDS011;6381;45.748;12.106;2022-12-20T08:19:21;36.33;;;32.33;;
12631;SDS011;6381;45.748;12.106;2022-12-20T08:21:58;34.43;;;31.00;;
12631;SDS011;6381;45.748;12.106;2022-12-20T08:24:29;33.50;;;30.27;;
12631;SDS011;6381;45.748;12.106;2022-12-20T08:26:59;32.27;;;28.97;;
12631;SDS011;6381;45.748;12.106;2022-12-20T08:29:33;32.03;;;28.67;;
12631;SDS011;6381;45.748;12.106;2022-12-20T08:32:08;34.50;;;29.70;;
12631;SDS011;6381;45.748;12.106;2022-12-20T08:34:40;32.73;;;29.43;;
12631;SDS011;6381;45.748;12.106;2022-12-20T08:37:15;34.43;;;30.60;;
12631;SDS011;6381;45.748;12.106;2022-12-20T08:39:47;33.63;;;30.10;;
12631;SDS011;6381;45.748;12.106;2022-12-20T08:42:24;33.47;;;29.17;;
12631;SDS011;6381;45.748;12.106;2022-12-20T08:44:55;34.27;;;28.13;;
12631;SDS011;6381;45.748;12.106;2022-12-20T08:47:27;30.13;;;27.23;;
12631;SDS011;6381;45.748;12.106;2022-12-20T08:49:58;33.83;;;29.70;;
12631;SDS011;6381;45.748;12.106;2022-12-20T08:52:28;31.97;;;28.67;;
12631;SDS011;6381;45.748;12.106;2022-12-20T08:55:00;30.70;;;27.37;;
12631;SDS011;6381;45.748;12.106;2022-12-20T08:57:31;29.93;;;26.67;;
12631;SDS011;6381;45.748;12.106;2022-12-20T09:00:01;30.33;;;25.83;;
12631;SDS011;6381;45.748;12.106;2022-12-20T09:02:31;29.50;;;26.30;;
12631;SDS011;6381;45.748;12.106;2022-12-20T09:05:04;30.33;;;27.13;;
12631;SDS011;6381;45.748;12.106;2022-12-20T09:07:35;33.97;;;27.83;;
12631;SDS011;6381;45.748;12.106;2022-12-20T09:10:07;34.60;;;29.70;;
12631;SDS011;6381;45.748;12.106;2022-12-20T09:12:37;39.63;;;31.00;;
12631;SDS011;6381;45.748;12.106;2022-12-20T09:15:06;39.13;;;30.87;;
12631;SDS011;6381;45.748;12.106;2022-12-20T09:17:37;43.67;;;34.80;;
12631;SDS011;6381;45.748;12.106;2022-12-20T09:20:07;40.47;;;28.70;;
12631;SDS011;6381;45.748;12.106;2022-12-20T09:22:36;34.10;;;28.57;;
12631;SDS011;6381;45.748;12.106;2022-12-20T09:25:08;39.67;;;35.40;;
12631;SDS011;6381;45.748;12.106;2022-12-20T09:27:37;34.43;;;29.73;;
12631;SDS011;6381;45.748;12.106;2022-12-20T09:30:07;32.60;;;29.10;;
12631;SDS011;6381;45.748;12.106;2022-12-20T09:32:37;35.70;;;30.97;;
12631;SDS011;6381;45.748;12.106;2022-12-20T09:35:06;34.13;;;30.50;;
12631;SDS011;6381;45.748;12.106;2022-12-20T09:37:36;30.33;;;27.03;;
12631;SDS011;6381;45.748;12.106;2022-12-20T09:40:08;28.60;;;25.70;;
12631;SDS011;6381;45.748;12.106;2022-12-20T09:42:44;26.20;;;23.43;;
12631;SDS011;6381;45.748;12.106;2022-12-20T09:45:17;26.83;;;24.07;;
12631;SDS011;6381;45.748;12.106;2022-12-20T09:47:51;27.70;;;23.67;;
12631;SDS011;6381;45.748;12.106;2022-12-20T09:50:25;27.10;;;22.10;;
12631;SDS011;6381;45.748;12.106;2022-12-20T09:53:08;25.37;;;22.70;;
12631;SDS011;6381;45.748;12.106;2022-12-20T09:55:47;24.43;;;20.83;;
12631;SDS011;6381;45.748;12.106;2022-12-20T10:01:26;26.00;;;23.23;;
12631;SDS011;6381;45.748;12.106;2022-12-20T10:04:06;26.37;;;23.57;;
12631;SDS011;6381;45.748;12.106;2022-12-20T10:06:46;27.37;;;23.27;;
12631;SDS011;6381;45.748;12.106;2022-12-20T10:09:29;26.40;;;23.30;;
12631;SDS011;6381;45.748;12.106;2022-12-20T10:12:13;26.63;;;22.93;;
12631;SDS011;6381;45.748;12.106;2022-12-20T10:14:53;24.03;;;21.47;;
12631;SDS011;6381;45.748;12.106;2022-12-20T10:17:45;24.60;;;21.57;;
12631;SDS011;6381;45.748;12.106;2022-12-20T10:20:28;24.17;;;21.67;;
12631;SDS011;6381;45.748;12.106;2022-12-20T10:23:08;27.90;;;22.50;;
12631;SDS011;6381;45.748;12.106;2022-12-20T10:25:45;22.67;;;20.23;;
12631;SDS011;6381;45.748;12.106;2022-12-20T10:28:16;22.83;;;20.43;;
12631;SDS011;6381;45.748;12.106;2022-12-20T10:30:52;23.17;;;19.93;;
12631;SDS011;6381;45.748;12.106;2022-12-20T10:33:22;23.07;;;19.67;;
12631;SDS011;6381;45.748;12.106;2022-12-20T10:35:54;23.77;;;21.27;;
12631;SDS011;6381;45.748;12.106;2022-12-20T10:38:23;26.60;;;23.80;;
12631;SDS011;6381;45.748;12.106;2022-12-20T10:40:58;28.63;;;25.60;;
12631;SDS011;6381;45.748;12.106;2022-12-20T10:43:49;25.73;;;23.07;;
12631;SDS011;6381;45.748;12.106;2022-12-20T10:46:26;26.27;;;22.27;;
12631;SDS011;6381;45.748;12.106;2022-12-20T10:51:50;29.57;;;22.53;;
12631;SDS011;6381;45.748;12.106;2022-12-20T10:54:21;27.43;;;22.93;;
12631;SDS011;6381;45.748;12.106;2022-12-20T10:56:57;24.67;;;22.10;;
12631;SDS011;6381;45.748;12.106;2022-12-20T10:59:29;38.30;;;30.40;;
12631;SDS011;6381;45.748;12.106;2022-12-20T11:02:08;27.20;;;24.07;;
12631;SDS011;6381;45.748;12.106;2022-12-20T11:05:17;27.87;;;23.43;;
12631;SDS011;6381;45.748;12.106;2022-12-20T11:07:52;24.87;;;22.23;;
12631;SDS011;6381;45.748;12.106;2022-12-20T11:10:43;27.43;;;22.80;;
12631;SDS011;6381;45.748;12.106;2022-12-20T11:13:20;27.77;;;23.43;;
12631;SDS011;6381;45.748;12.106;2022-12-20T11:15:52;27.47;;;23.67;;
12631;SDS011;6381;45.748;12.106;2022-12-20T11:18:32;25.83;;;23.10;;
12631;SDS011;6381;45.748;12.106;2022-12-20T11:21:13;27.53;;;24.53;;
12631;SDS011;6381;45.748;12.106;2022-12-20T11:23:57;29.77;;;25.77;;
12631;SDS011;6381;45.748;12.106;2022-12-20T11:26:34;31.00;;;26.90;;
12631;SDS011;6381;45.748;12.106;2022-12-20T11:29:22;30.17;;;25.97;;
12631;SDS011;6381;45.748;12.106;2022-12-20T11:32:02;29.90;;;26.03;;
12631;SDS011;6381;45.748;12.106;2022-12-20T11:34:46;27.73;;;24.73;;
12631;SDS011;6381;45.748;12.106;2022-12-20T11:37:26;27.43;;;23.97;;
12631;SDS011;6381;45.748;12.106;2022-12-20T11:42:56;27.13;;;24.17;;
12631;SDS011;6381;45.748;12.106;2022-12-20T11:45:39;26.77;;;23.93;;
12631;SDS011;6381;45.748;12.106;2022-12-20T11:48:21;25.50;;;22.80;;
12631;SDS011;6381;45.748;12.106;2022-12-20T11:51:08;26.33;;;23.57;;
12631;SDS011;6381;45.748;12.106;2022-12-20T11:53:53;25.87;;;22.33;;
12631;SDS011;6381;45.748;12.106;2022-12-20T11:56:29;28.23;;;23.13;;
12631;SDS011;6381;45.748;12.106;2022-12-20T11:59:11;24.83;;;22.03;;
12631;SDS011;6381;45.748;12.106;2022-12-20T12:01:49;26.03;;;21.30;;
12631;SDS011;6381;45.748;12.106;2022-12-20T12:04:24;24.63;;;22.03;;
12631;SDS011;6381;45.748;12.106;2022-12-20T12:07:00;23.93;;;20.83;;
12631;SDS011;6381;45.748;12.106;2022-12-20T12:09:32;25.37;;;21.77;;
12631;SDS011;6381;45.748;12.106;2022-12-20T12:12:07;24.07;;;20.43;;
12631;SDS011;6381;45.748;12.106;2022-12-20T12:14:45;24.10;;;20.83;;
12631;SDS011;6381;45.748;12.106;2022-12-20T12:17:22;23.97;;;20.93;;
12631;SDS011;6381;45.748;12.106;2022-12-20T12:19:56;24.03;;;21.00;;
12631;SDS011;6381;45.748;12.106;2022-12-20T12:22:44;25.63;;;20.27;;
12631;SDS011;6381;45.748;12.106;2022-12-20T12:25:16;26.43;;;21.57;;
12631;SDS011;6381;45.748;12.106;2022-12-20T12:27:46;25.03;;;22.37;;
12631;SDS011;6381;45.748;12.106;2022-12-20T12:30:16;23.40;;;19.70;;
12631;SDS011;6381;45.748;12.106;2022-12-20T12:32:46;22.67;;;20.37;;
12631;SDS011;6381;45.748;12.106;2022-12-20T12:35:24;24.77;;;21.73;;
12631;SDS011;6381;45.748;12.106;2022-12-20T12:38:29;23.77;;;20.17;;
12631;SDS011;6381;45.748;12.106;2022-12-20T12:41:26;21.80;;;19.47;;
12631;SDS011;6381;45.748;12.106;2022-12-20T12:47:10;26.00;;;21.40;;
12631;SDS011;6381;45.748;12.106;2022-12-20T12:49:44;23.93;;;21.03;;
12631;SDS011;6381;45.748;12.106;2022-12-20T12:52:28;23.03;;;19.70;;
12631;SDS011;6381;45.748;12.106;2022-12-20T13:01:28;24.17;;;20.27;;
12631;SDS011;6381;45.748;12.106;2022-12-20T13:04:24;23.77;;;21.27;;
12631;SDS011;6381;45.748;12.106;2022-12-20T13:06:57;28.40;;;22.00;;
12631;SDS011;6381;45.748;12.106;2022-12-20T13:09:36;24.83;;;22.17;;
12631;SDS011;6381;45.748;12.106;2022-12-20T13:18:27;25.53;;;21.90;;
12631;SDS011;6381;45.748;12.106;2022-12-20T13:27:24;26.00;;;20.37;;
12631;SDS011;6381;45.748;12.106;2022-12-20T13:33:02;21.30;;;19.07;;
12631;SDS011;6381;45.748;12.106;2022-12-20T13:35:57;23.97;;;19.90;;
12631;SDS011;6381;45.748;12.106;2022-12-20T13:38:38;20.30;;;18.10;;
12631;SDS011;6381;45.748;12.106;2022-12-20T13:44:25;24.13;;;19.87;;
12631;SDS011;6381;45.748;12.106;2022-12-20T13:49:59;23.97;;;20.80;;
12631;SDS011;6381;45.748;12.106;2022-12-20T13:52:31;26.93;;;21.57;;
12631;SDS011;6381;45.748;12.106;2022-12-20T13:55:07;26.03;;;21.20;;
12631;SDS011;6381;45.748;12.106;2022-12-20T13:57:45;26.73;;;21.97;;
12631;SDS011;6381;45.748;12.106;2022-12-20T14:00:15;24.33;;;21.73;;
12631;SDS011;6381;45.748;12.106;2022-12-20T14:02:46;29.60;;;23.93;;
12631;SDS011;6381;45.748;12.106;2022-12-20T14:05:18;28.03;;;23.93;;
12631;SDS011;6381;45.748;12.106;2022-12-20T14:07:52;29.13;;;24.10;;
12631;SDS011;6381;45.748;12.106;2022-12-20T14:10:27;28.73;;;23.27;;
12631;SDS011;6381;45.748;12.106;2022-12-20T14:12:58;28.17;;;25.00;;
12631;SDS011;6381;45.748;12.106;2022-12-20T14:15:29;29.93;;;24.63;;
12631;SDS011;6381;45.748;12.106;2022-12-20T14:18:03;30.47;;;26.67;;
12631;SDS011;6381;45.748;12.106;2022-12-20T14:20:34;31.87;;;27.73;;
12631;SDS011;6381;45.748;12.106;2022-12-20T14:23:09;36.90;;;29.37;;
12631;SDS011;6381;45.748;12.106;2022-12-20T14:25:43;36.60;;;28.20;;
12631;SDS011;6381;45.748;12.106;2022-12-20T14:28:17;33.53;;;28.70;;
12631;SDS011;6381;45.748;12.106;2022-12-20T14:30:55;34.73;;;28.00;;
12631;SDS011;6381;45.748;12.106;2022-12-20T14:33:28;36.83;;;29.83;;
12631;SDS011;6381;45.748;12.106;2022-12-20T14:36:08;34.57;;;29.93;;
12631;SDS011;6381;45.748;12.106;2022-12-20T14:38:47;36.17;;;31.70;;
12631;SDS011;6381;45.748;12.106;2022-12-20T14:44:13;37.13;;;30.93;;
12631;SDS011;6381;45.748;12.106;2022-12-20T14:46:47;35.57;;;29.73;;
12631;SDS011;6381;45.748;12.106;2022-12-20T14:49:22;36.93;;;31.50;;
12631;SDS011;6381;45.748;12.106;2022-12-20T14:52:03;36.33;;;30.63;;
12631;SDS011;6381;45.748;12.106;2022-12-20T14:54:47;32.80;;;29.33;;
12631;SDS011;6381;45.748;12.106;2022-12-20T14:57:38;38.53;;;31.23;;
12631;SDS011;6381;45.748;12.106;2022-12-20T15:00:17;35.40;;;31.57;;
12631;SDS011;6381;45.748;12.106;2022-12-20T15:02:50;33.70;;;30.03;;
12631;SDS011;6381;45.748;12.106;2022-12-20T15:05:47;35.97;;;31.13;;
12631;SDS011;6381;45.748;12.106;2022-12-20T15:08:18;37.33;;;33.27;;
12631;SDS011;6381;45.748;12.106;2022-12-20T15:10:54;36.63;;;32.63;;
12631;SDS011;6381;45.748;12.106;2022-12-20T15:13:27;37.23;;;33.17;;
12631;SDS011;6381;45.748;12.106;2022-12-20T15:15:59;35.27;;;31.37;;
12631;SDS011;6381;45.748;12.106;2022-12-20T15:18:30;40.67;;;33.03;;
12631;SDS011;6381;45.748;12.106;2022-12-20T15:21:02;36.87;;;31.97;;
12631;SDS011;6381;45.748;12.106;2022-12-20T15:23:34;36.73;;;32.77;;
12631;SDS011;6381;45.748;12.106;2022-12-20T15:26:05;38.13;;;33.93;;
12631;SDS011;6381;45.748;12.106;2022-12-20T15:28:34;37.70;;;32.77;;
12631;SDS011;6381;45.748;12.106;2022-12-20T15:31:04;36.70;;;31.57;;
12631;SDS011;6381;45.748;12.106;2022-12-20T15:33:33;37.83;;;30.90;;
12631;SDS011;6381;45.748;12.106;2022-12-20T15:36:03;40.43;;;32.00;;
12631;SDS011;6381;45.748;12.106;2022-12-20T15:38:32;47.73;;;35.90;;
12631;SDS011;6381;45.748;12.106;2022-12-20T15:41:24;47.97;;;39.97;;
12631;SDS011;6381;45.748;12.106;2022-12-20T15:43:56;47.00;;;37.60;;
12631;SDS011;6381;45.748;12.106;2022-12-20T15:46:27;53.07;;;38.37;;
12631;SDS011;6381;45.748;12.106;2022-12-20T15:48:57;49.60;;;41.37;;
12631;SDS011;6381;45.748;12.106;2022-12-20T15:51:27;49.87;;;39.13;;